createdAt,value
2023-11-27T00:00:14.359Z,1003.91
2023-11-27T00:01:12.471Z,1003.92
2023-11-27T00:02:12.467Z,1003.89
2023-11-27T00:03:12.378Z,1003.92
2023-11-27T00:04:12.482Z,1003.90
2023-11-27T00:05:12.365Z,1003.87
2023-11-27T00:06:12.336Z,1003.88
2023-11-27T00:07:12.390Z,1003.87
2023-11-27T00:08:15.135Z,1003.81
2023-11-27T00:09:12.324Z,1003.83
2023-11-27T00:10:12.329Z,1003.81
2023-11-27T00:11:12.298Z,1003.79
2023-11-27T00:12:12.273Z,1003.78
2023-11-27T00:13:12.350Z,1003.77
2023-11-27T00:14:12.284Z,1003.80
2023-11-27T00:15:12.252Z,1003.76
2023-11-27T00:16:12.429Z,1003.76
2023-11-27T00:17:12.240Z,1003.75
2023-11-27T00:18:12.285Z,1003.71
2023-11-27T00:19:12.279Z,1003.73
2023-11-27T00:20:12.194Z,1003.70
2023-11-27T00:21:12.185Z,1003.64
2023-11-27T00:22:12.223Z,1003.63
2023-11-27T00:23:12.198Z,1003.63
2023-11-27T00:24:12.157Z,1003.59
2023-11-27T00:25:12.203Z,1003.54
2023-11-27T00:26:12.142Z,1003.52
2023-11-27T00:27:12.111Z,1003.50
2023-11-27T00:28:12.204Z,1003.50
2023-11-27T00:29:12.121Z,1003.47
2023-11-27T00:30:12.211Z,1003.43
2023-11-27T00:31:12.238Z,1003.44
2023-11-27T00:32:12.117Z,1003.44
2023-11-27T00:33:12.092Z,1003.40
2023-11-27T00:34:12.091Z,1003.40
2023-11-27T00:35:12.030Z,1003.42
2023-11-27T00:36:12.060Z,1003.37
2023-11-27T00:37:12.094Z,1003.36
2023-11-27T00:38:12.007Z,1003.35
2023-11-27T00:39:12.008Z,1003.35
2023-11-27T00:40:12.056Z,1003.27
2023-11-27T00:41:12.003Z,1003.27
2023-11-27T00:42:11.975Z,1003.22
2023-11-27T00:43:12.035Z,1003.22
2023-11-27T00:44:11.966Z,1003.22
2023-11-27T00:45:11.961Z,1003.18
2023-11-27T00:46:11.929Z,1003.20
2023-11-27T00:47:11.978Z,1003.20
2023-11-27T00:48:11.950Z,1003.19
2023-11-27T00:49:11.957Z,1003.16
2023-11-27T00:50:11.926Z,1003.19
2023-11-27T00:51:11.879Z,1003.18
2023-11-27T00:52:11.911Z,1003.10
2023-11-27T00:53:11.898Z,1003.12
2023-11-27T00:54:11.897Z,1003.06
2023-11-27T00:55:11.915Z,1003.06
2023-11-27T00:56:11.836Z,1003.03
2023-11-27T00:57:11.812Z,1003.04
2023-11-27T00:58:11.818Z,1003.00
2023-11-27T00:59:11.797Z,1003.05
2023-11-27T01:00:11.773Z,1002.99
2023-11-27T01:01:11.822Z,1002.99
2023-11-27T01:02:11.887Z,1002.98
2023-11-27T01:03:11.891Z,1002.95
2023-11-27T01:04:11.800Z,1002.94
2023-11-27T01:05:11.778Z,1002.92
2023-11-27T01:06:11.720Z,1002.91
2023-11-27T01:07:11.744Z,1002.88
2023-11-27T01:08:11.684Z,1002.88
2023-11-27T01:09:11.703Z,1002.85
2023-11-27T01:10:11.733Z,1002.81
2023-11-27T01:11:11.692Z,1002.78
2023-11-27T01:12:11.685Z,1002.76
2023-11-27T01:13:11.691Z,1002.75
2023-11-27T01:14:11.643Z,1002.74
2023-11-27T01:15:33.709Z,1002.76
2023-11-27T01:16:11.686Z,1002.70
2023-11-27T01:17:11.621Z,1002.70
2023-11-27T01:18:11.590Z,1002.66
2023-11-27T01:19:11.691Z,1002.62
2023-11-27T01:20:11.585Z,1002.61
2023-11-27T01:21:11.599Z,1002.57
2023-11-27T01:22:11.592Z,1002.58
2023-11-27T01:23:11.557Z,1002.56
2023-11-27T01:24:11.569Z,1002.56
2023-11-27T01:25:11.842Z,1002.59
2023-11-27T01:26:11.551Z,1002.55
2023-11-27T01:27:11.528Z,1002.55
2023-11-27T01:28:11.542Z,1002.55
2023-11-27T01:29:11.514Z,1002.53
2023-11-27T01:30:11.527Z,1002.51
2023-11-27T01:31:11.507Z,1002.49
2023-11-27T01:32:11.472Z,1002.41
2023-11-27T01:33:11.602Z,1002.38
2023-11-27T01:34:11.503Z,1002.39
2023-11-27T01:35:11.453Z,1002.35
2023-11-27T01:36:11.413Z,1002.38
2023-11-27T01:37:11.421Z,1002.41
2023-11-27T01:38:11.414Z,1002.40
2023-11-27T01:39:11.371Z,1002.35
2023-11-27T01:40:11.541Z,1002.30
2023-11-27T01:41:11.418Z,1002.28
2023-11-27T01:42:11.360Z,1002.23
2023-11-27T01:43:11.356Z,1002.20
2023-11-27T01:44:11.369Z,1002.16
2023-11-27T01:45:11.320Z,1002.14
2023-11-27T01:46:11.312Z,1002.12
2023-11-27T01:47:11.325Z,1002.10
2023-11-27T01:48:11.327Z,1002.03
2023-11-27T01:49:11.318Z,1002.01
2023-11-27T01:50:11.285Z,1002.01
2023-11-27T01:51:11.274Z,1001.93
2023-11-27T01:52:11.293Z,1001.93
2023-11-27T01:53:11.272Z,1001.93
2023-11-27T01:54:11.213Z,1001.92
2023-11-27T01:55:11.341Z,1001.89
2023-11-27T01:56:11.193Z,1001.90
2023-11-27T01:57:11.224Z,1001.90
2023-11-27T01:58:11.197Z,1001.90
2023-11-27T01:59:11.180Z,1001.88
2023-11-27T02:00:11.180Z,1001.87
2023-11-27T02:01:11.262Z,1001.87
2023-11-27T02:02:11.337Z,1001.91
2023-11-27T02:03:11.327Z,1001.86
2023-11-27T02:04:11.159Z,1001.86
2023-11-27T02:05:11.099Z,1001.82
2023-11-27T02:06:11.102Z,1001.77
2023-11-27T02:07:11.134Z,1001.77
2023-11-27T02:08:11.104Z,1001.81
2023-11-27T02:09:11.081Z,1001.72
2023-11-27T02:10:11.072Z,1001.70
2023-11-27T02:11:11.060Z,1001.70
2023-11-27T02:12:11.048Z,1001.69
2023-11-27T02:13:11.065Z,1001.68
2023-11-27T02:14:10.998Z,1001.68
2023-11-27T02:15:11.071Z,1001.66
2023-11-27T02:16:11.031Z,1001.61
2023-11-27T02:17:11.032Z,1001.61
2023-11-27T02:18:11.024Z,1001.58
2023-11-27T02:19:11.006Z,1001.54
2023-11-27T02:20:10.931Z,1001.59
2023-11-27T02:21:10.935Z,1001.57
2023-11-27T02:22:11.019Z,1001.59
2023-11-27T02:23:10.911Z,1001.53
2023-11-27T02:24:10.927Z,1001.54
2023-11-27T02:25:11.005Z,1001.52
2023-11-27T02:26:10.936Z,1001.56
2023-11-27T02:27:10.909Z,1001.53
2023-11-27T02:28:10.936Z,1001.51
2023-11-27T02:29:10.903Z,1001.48
2023-11-27T02:30:10.835Z,1001.50
2023-11-27T02:31:10.896Z,1001.47
2023-11-27T02:32:10.839Z,1001.46
2023-11-27T02:33:10.880Z,1001.45
2023-11-27T02:34:10.856Z,1001.48
2023-11-27T02:35:10.801Z,1001.44
2023-11-27T02:36:10.769Z,1001.46
2023-11-27T02:37:10.824Z,1001.42
2023-11-27T02:38:10.752Z,1001.46
2023-11-27T02:39:10.757Z,1001.35
2023-11-27T02:40:10.748Z,1001.29
2023-11-27T02:41:10.709Z,1001.29
2023-11-27T02:42:10.727Z,1001.31
2023-11-27T02:43:10.768Z,1001.29
2023-11-27T02:44:10.763Z,1001.28
2023-11-27T02:45:10.725Z,1001.25
2023-11-27T02:46:10.736Z,1001.24
2023-11-27T02:47:10.706Z,1001.25
2023-11-27T02:48:10.674Z,1001.20
2023-11-27T02:49:10.665Z,1001.22
2023-11-27T02:50:10.615Z,1001.20
2023-11-27T02:51:10.622Z,1001.16
2023-11-27T02:52:10.646Z,1001.14
2023-11-27T02:53:10.608Z,1001.08
2023-11-27T02:54:10.598Z,1001.04
2023-11-27T02:55:10.632Z,1001.07
2023-11-27T02:56:10.564Z,1001.09
2023-11-27T02:57:10.565Z,1001.04
2023-11-27T02:58:10.552Z,1001.01
2023-11-27T02:59:10.535Z,1000.97
2023-11-27T03:00:10.572Z,1000.96
2023-11-27T03:01:10.669Z,1000.96
2023-11-27T03:02:10.606Z,1000.95
2023-11-27T03:03:10.563Z,1000.93
2023-11-27T03:04:10.471Z,1000.87
2023-11-27T03:05:10.441Z,1000.85
2023-11-27T03:06:10.437Z,1000.84
2023-11-27T03:07:10.461Z,1000.84
2023-11-27T03:08:10.414Z,1000.83
2023-11-27T03:09:10.402Z,1000.78
2023-11-27T03:10:10.902Z,1000.77
2023-11-27T03:11:10.415Z,1000.78
2023-11-27T03:12:10.412Z,1000.76
2023-11-27T03:13:11.404Z,1000.75
2023-11-27T03:19:13.482Z,1000.63
2023-11-27T03:20:13.286Z,1000.61
2023-11-27T03:21:13.268Z,1000.63
2023-11-27T03:22:12.752Z,1000.60
2023-11-27T03:23:12.726Z,1000.55
2023-11-27T03:24:13.201Z,1000.57
2023-11-27T03:25:13.384Z,1000.57
2023-11-27T03:26:12.692Z,1000.55
2023-11-27T03:27:12.647Z,1000.54
2023-11-27T03:28:12.212Z,1000.49
2023-11-27T03:29:12.651Z,1000.50
2023-11-27T03:30:13.662Z,1000.45
2023-11-27T03:31:13.258Z,1000.45
2023-11-27T03:32:12.634Z,1000.43
2023-11-27T03:33:13.134Z,1000.46
2023-11-27T03:34:12.649Z,1000.42
2023-11-27T03:35:12.099Z,1000.44
2023-11-27T03:36:12.080Z,1000.43
2023-11-27T03:37:12.126Z,1000.39
2023-11-27T03:38:12.047Z,1000.42
2023-11-27T03:39:12.063Z,1000.43
2023-11-27T03:40:12.131Z,1000.38
2023-11-27T03:41:12.024Z,1000.36
2023-11-27T03:42:12.039Z,1000.36
2023-11-27T03:43:12.051Z,1000.32
2023-11-27T03:44:12.020Z,1000.30
2023-11-27T03:45:12.025Z,1000.29
2023-11-27T03:46:12.096Z,1000.29
2023-11-27T03:47:11.958Z,1000.28
2023-11-27T03:48:11.993Z,1000.27
2023-11-27T03:49:11.964Z,1000.24
2023-11-27T03:50:12.008Z,1000.29
2023-11-27T03:51:11.916Z,1000.23
2023-11-27T03:52:11.965Z,1000.16
2023-11-27T03:53:11.902Z,1000.20
2023-11-27T03:54:11.921Z,1000.16
2023-11-27T03:55:11.928Z,1000.13
2023-11-27T03:56:11.873Z,1000.12
2023-11-27T03:57:11.847Z,1000.07
2023-11-27T03:58:11.862Z,1000.03
2023-11-27T03:59:11.832Z,1000.01
2023-11-27T04:00:11.818Z,1000.03
2023-11-27T04:01:11.908Z,1000.05
2023-11-27T04:02:11.955Z,1000.03
2023-11-27T04:03:11.815Z,1000.05
2023-11-27T04:04:11.924Z,1000.02
2023-11-27T04:05:11.768Z,999.97
2023-11-27T04:06:11.748Z,1000.01
2023-11-27T04:07:11.803Z,999.98
2023-11-27T04:08:11.757Z,999.97
2023-11-27T04:09:11.709Z,999.95
2023-11-27T04:10:11.762Z,999.91
2023-11-27T04:11:11.689Z,999.89
2023-11-27T04:12:11.682Z,999.88
2023-11-27T04:13:11.690Z,999.84
2023-11-27T04:14:11.688Z,999.84
2023-11-27T04:15:11.709Z,999.82
2023-11-27T04:16:11.876Z,999.78
2023-11-27T04:17:11.645Z,999.74
2023-11-27T04:18:11.653Z,999.73
2023-11-27T04:19:11.635Z,999.67
2023-11-27T04:20:11.597Z,999.68
2023-11-27T04:21:11.605Z,999.68
2023-11-27T04:22:11.644Z,999.65
2023-11-27T04:23:11.554Z,999.61
2023-11-27T04:24:11.555Z,999.56
2023-11-27T04:25:11.623Z,999.58
2023-11-27T04:26:11.528Z,999.54
2023-11-27T04:27:11.519Z,999.54
2023-11-27T04:28:11.572Z,999.48
2023-11-27T04:29:11.541Z,999.50
2023-11-27T04:30:11.509Z,999.46
2023-11-27T04:31:11.586Z,999.50
2023-11-27T04:32:11.462Z,999.48
2023-11-27T04:33:11.449Z,999.44
2023-11-27T04:34:11.561Z,999.49
2023-11-27T04:35:11.466Z,999.47
2023-11-27T04:36:11.450Z,999.44
2023-11-27T04:37:11.448Z,999.41
2023-11-27T04:38:11.406Z,999.40
2023-11-27T04:39:11.384Z,999.37
2023-11-27T04:40:11.395Z,999.38
2023-11-27T04:41:11.430Z,999.39
2023-11-27T04:42:11.346Z,999.38
2023-11-27T04:43:11.399Z,999.34
2023-11-27T04:44:11.329Z,999.31
2023-11-27T04:45:11.320Z,999.29
2023-11-27T04:46:11.414Z,999.31
2023-11-27T04:47:11.306Z,999.32
2023-11-27T04:48:11.271Z,999.29
2023-11-27T04:49:11.357Z,999.31
2023-11-27T04:50:11.341Z,999.30
2023-11-27T04:51:11.343Z,999.32
2023-11-27T04:52:11.251Z,999.32
2023-11-27T04:53:11.238Z,999.31
2023-11-27T04:54:11.232Z,999.29
2023-11-27T04:55:11.216Z,999.30
2023-11-27T04:56:11.204Z,999.32
2023-11-27T04:57:11.210Z,999.22
2023-11-27T04:58:11.221Z,999.24
2023-11-27T05:02:54.409Z,999.18
2023-11-27T05:03:53.940Z,999.18
2023-11-27T05:04:54.230Z,999.11
2023-11-27T05:05:54.206Z,999.10
2023-11-27T05:06:53.677Z,999.08
2023-11-27T05:07:53.162Z,999.04
2023-11-27T05:08:53.623Z,999.05
2023-11-27T05:09:53.677Z,999.04
2023-11-27T05:10:52.830Z,999.03
2023-11-27T05:11:54.398Z,999.01
2023-11-27T05:12:53.907Z,999.00
2023-11-27T05:13:54.133Z,999.02
2023-11-27T05:14:53.629Z,998.99
2023-11-27T05:15:53.571Z,998.97
2023-11-27T05:16:54.436Z,998.88
2023-11-27T05:17:52.619Z,998.86
2023-11-27T05:27:43.223Z,998.65
2023-11-27T05:28:42.146Z,998.67
2023-11-27T05:29:42.030Z,998.64
2023-11-27T05:30:43.819Z,998.65
2023-11-27T05:31:42.113Z,998.61
2023-11-27T05:32:43.196Z,998.57
2023-11-27T05:33:42.620Z,998.60
2023-11-27T05:34:41.745Z,998.59
2023-11-27T05:35:41.695Z,998.57
2023-11-27T05:36:42.479Z,998.53
2023-11-27T05:37:43.062Z,998.54
2023-11-27T05:38:43.668Z,998.48
2023-11-27T05:39:43.741Z,998.48
2023-11-27T05:41:02.608Z,998.42
2023-11-27T05:41:41.549Z,998.42
2023-11-27T05:42:41.529Z,998.39
2023-11-27T05:43:41.504Z,998.39
2023-11-27T05:44:41.480Z,998.35
2023-11-27T05:45:41.490Z,998.36
2023-11-27T05:46:41.601Z,998.36
2023-11-27T05:47:41.549Z,998.33
2023-11-27T05:48:41.444Z,998.35
2023-11-27T05:49:41.447Z,998.34
2023-11-27T05:50:41.436Z,998.26
2023-11-27T05:51:41.460Z,998.24
2023-11-27T05:52:41.423Z,998.20
2023-11-27T05:53:41.462Z,998.20
2023-11-27T05:54:41.384Z,998.20
2023-11-27T05:55:41.401Z,998.18
2023-11-27T05:56:41.426Z,998.16
2023-11-27T05:57:41.425Z,998.19
2023-11-27T05:58:41.352Z,998.17
2023-11-27T05:59:41.342Z,998.14
2023-11-27T06:00:41.320Z,998.14
2023-11-27T06:01:41.314Z,998.12
2023-11-27T06:02:41.377Z,998.10
2023-11-27T06:03:41.402Z,998.08
2023-11-27T06:04:41.327Z,998.09
2023-11-27T06:05:41.319Z,998.07
2023-11-27T06:06:41.249Z,998.06
2023-11-27T06:07:41.260Z,998.11
2023-11-27T06:08:41.228Z,998.10
2023-11-27T06:09:41.216Z,998.11
2023-11-27T06:10:41.293Z,998.11
2023-11-27T06:11:41.251Z,998.10
2023-11-27T06:12:41.243Z,998.08
2023-11-27T06:13:41.192Z,997.97
2023-11-27T06:14:41.270Z,998.01
2023-11-27T06:15:41.163Z,997.89
2023-11-27T06:16:41.222Z,997.91
2023-11-27T06:17:41.191Z,997.90
2023-11-27T06:18:41.190Z,997.91
2023-11-27T06:19:41.138Z,997.85
2023-11-27T06:20:41.099Z,997.87
2023-11-27T06:21:41.136Z,997.89
2023-11-27T06:22:41.068Z,997.85
2023-11-27T06:23:41.134Z,997.82
2023-11-27T06:24:41.044Z,997.77
2023-11-27T06:25:41.147Z,997.75
2023-11-27T06:26:41.043Z,997.73
2023-11-27T06:27:41.074Z,997.75
2023-11-27T06:28:41.047Z,997.75
2023-11-27T06:29:41.020Z,997.69
2023-11-27T06:30:41.000Z,997.69
2023-11-27T06:31:41.082Z,997.66
2023-11-27T06:32:41.125Z,997.63
2023-11-27T06:33:41.131Z,997.66
2023-11-27T06:34:41.014Z,997.59
2023-11-27T06:35:40.981Z,997.57
2023-11-27T06:36:40.924Z,997.52
2023-11-27T06:37:40.977Z,997.49
2023-11-27T07:27:01.810Z,996.00
2023-11-27T07:28:01.891Z,995.97
2023-11-27T07:32:35.758Z,995.78
2023-11-27T07:33:35.620Z,995.83
2023-11-27T07:35:29.800Z,995.80
2023-11-27T07:36:30.436Z,995.76
2023-11-27T19:45:53.043Z,984.12
2023-11-27T19:46:56.361Z,984.10
2023-11-27T19:49:38.258Z,984.02
2023-11-27T19:50:38.310Z,984.02
2023-11-27T19:52:35.194Z,984.02
2023-11-27T19:53:34.591Z,984.00
2023-11-27T19:55:32.802Z,983.98
2023-11-27T19:56:32.456Z,983.94
2023-11-27T19:58:28.705Z,983.96
2023-11-27T19:59:28.660Z,983.92
2023-11-27T20:01:24.753Z,983.89
2023-11-27T20:02:24.913Z,983.91
2023-11-27T20:04:20.766Z,983.90
2023-11-27T20:05:19.352Z,983.92
2023-11-27T20:07:14.686Z,983.90
2023-11-27T20:08:14.085Z,983.91
2023-11-27T20:10:09.220Z,983.89
2023-11-27T20:11:09.767Z,983.91
2023-11-27T20:13:08.905Z,983.83
2023-11-27T20:14:06.436Z,983.87
2023-11-27T20:16:01.079Z,983.79
2023-11-27T20:17:00.327Z,983.76
2023-11-27T20:18:57.929Z,983.77
2023-11-27T20:19:57.814Z,983.79
2023-11-27T20:21:53.908Z,983.74
2023-11-27T20:22:53.422Z,983.79
2023-11-27T20:24:50.158Z,983.75
2023-11-27T20:25:49.714Z,983.69
2023-11-27T20:27:46.691Z,983.68
2023-11-27T20:28:46.463Z,983.68
2023-11-27T20:30:41.364Z,983.61
2023-11-27T20:31:41.035Z,983.68
2023-11-27T20:33:36.148Z,983.61
2023-11-27T20:34:36.048Z,983.62
2023-11-27T20:36:32.466Z,983.61
2023-11-27T20:37:32.205Z,983.64
2023-11-27T20:39:28.991Z,983.62
2023-11-27T20:40:28.748Z,983.63
2023-11-27T20:42:27.027Z,983.61
2023-11-27T20:43:26.591Z,983.63
2023-11-27T20:45:24.358Z,983.63
2023-11-27T20:46:25.863Z,983.61
2023-11-27T20:48:19.475Z,983.62
2023-11-27T20:49:19.163Z,983.60
2023-11-27T20:51:16.243Z,983.59
2023-11-27T20:52:15.645Z,983.58
2023-11-27T20:54:12.412Z,983.56
2023-11-27T20:55:11.763Z,983.54
2023-11-27T20:57:07.095Z,983.58
2023-11-27T20:58:06.891Z,983.56
2023-11-27T21:00:02.260Z,983.54
2023-11-27T21:01:02.428Z,983.49
2023-11-27T21:02:57.942Z,983.47
2023-11-27T21:03:57.066Z,983.48
2023-11-27T21:05:53.260Z,983.41
2023-11-27T21:06:53.599Z,983.43
2023-11-27T21:08:49.629Z,983.41
2023-11-27T21:09:49.267Z,983.41
2023-11-27T21:11:58.467Z,983.39
2023-11-27T21:12:56.547Z,983.36
2023-11-27T21:14:52.915Z,983.41
2023-11-27T21:15:51.219Z,983.33
2023-11-27T21:17:48.088Z,983.38
2023-11-27T21:18:47.071Z,983.42
2023-11-27T21:20:42.496Z,983.36
2023-11-27T21:21:44.059Z,983.36
2023-11-27T21:23:37.567Z,983.31
2023-11-27T21:24:37.199Z,983.32
2023-11-27T21:26:32.799Z,983.30
2023-11-27T21:27:32.372Z,983.29
2023-11-27T21:29:28.694Z,983.29
2023-11-27T21:30:28.658Z,983.25
2023-11-27T21:32:25.482Z,983.23
2023-11-27T21:33:24.902Z,983.25
2023-11-27T21:35:21.597Z,983.27
2023-11-27T21:36:21.196Z,983.26
2023-11-27T21:38:17.925Z,983.30
2023-11-27T21:39:17.463Z,983.33
2023-11-27T21:41:14.126Z,983.32
2023-11-27T21:42:13.598Z,983.31
2023-11-27T21:44:09.921Z,983.31
2023-11-27T21:45:09.938Z,983.28
2023-11-27T21:47:05.405Z,983.25
2023-11-27T21:48:04.915Z,983.27
2023-11-27T21:50:01.742Z,983.34
2023-11-27T21:51:01.273Z,983.24
2023-11-27T21:52:56.507Z,983.25
2023-11-27T21:53:56.202Z,983.24
2023-11-27T21:55:52.799Z,983.27
2023-11-27T21:56:51.651Z,983.22
2023-11-27T21:58:48.541Z,983.20
2023-11-27T21:59:48.201Z,983.27
2023-11-27T22:01:45.200Z,983.20
2023-11-27T22:02:44.077Z,983.24
2023-11-27T22:04:39.688Z,983.21
2023-11-27T22:05:39.182Z,983.26
2023-11-27T22:07:35.902Z,983.25
2023-11-27T22:08:35.899Z,983.22
2023-11-27T22:10:33.231Z,983.30
2023-11-27T22:11:30.751Z,983.25
2023-11-27T22:13:27.402Z,983.20
2023-11-27T22:14:26.913Z,983.26
2023-11-27T22:16:23.583Z,983.23
2023-11-27T22:17:23.009Z,983.26
2023-11-27T22:19:18.488Z,983.21
2023-11-27T22:20:18.119Z,983.25
2023-11-27T22:22:14.533Z,983.26
2023-11-27T22:23:14.321Z,983.30
2023-11-27T22:25:10.881Z,983.27
2023-11-27T22:26:10.748Z,983.23
2023-11-27T22:28:06.913Z,983.25
2023-11-27T22:29:06.713Z,983.28
2023-11-27T22:31:03.183Z,983.25
2023-11-27T22:32:02.818Z,983.26
2023-11-27T22:33:59.192Z,983.31
2023-11-27T22:34:58.920Z,983.30
2023-11-27T22:36:55.463Z,983.30
2023-11-27T22:37:54.945Z,983.29
2023-11-27T22:39:51.495Z,983.31
2023-11-27T22:40:51.220Z,983.28
2023-11-27T22:42:47.802Z,983.28
2023-11-27T22:43:47.936Z,983.26
2023-11-27T22:45:44.136Z,983.25
2023-11-27T22:46:43.804Z,983.29
2023-11-27T22:48:40.014Z,983.31
2023-11-27T22:49:38.841Z,983.29
2023-11-27T22:51:35.414Z,983.32
2023-11-27T22:52:35.360Z,983.31
2023-11-27T22:54:32.113Z,983.28
2023-11-27T22:55:31.317Z,983.33
2023-11-27T22:57:27.647Z,983.30
2023-11-27T22:58:27.489Z,983.32
2023-11-27T23:00:23.979Z,983.29
2023-11-27T23:01:23.712Z,983.33
2023-11-27T23:03:20.313Z,983.28
2023-11-27T23:04:19.555Z,983.35
2023-11-27T23:06:25.134Z,983.36
2023-11-27T23:07:14.936Z,983.39
2023-11-27T23:09:09.088Z,983.35
2023-11-27T23:10:08.829Z,983.42
2023-11-27T23:12:05.299Z,983.36
2023-11-27T23:13:05.064Z,983.43
2023-11-27T23:15:03.365Z,983.41
2023-11-27T23:16:01.629Z,983.45
2023-11-27T23:17:57.484Z,983.46
2023-11-27T23:18:57.285Z,983.47
2023-11-27T23:20:52.824Z,983.47
2023-11-27T23:21:52.474Z,983.51
2023-11-27T23:23:48.653Z,983.52
2023-11-27T23:24:47.569Z,983.51
2023-11-27T23:26:42.808Z,983.59
2023-11-27T23:27:42.507Z,983.58
2023-11-27T23:29:39.012Z,983.63
2023-11-27T23:30:38.643Z,983.58
2023-11-27T23:32:34.995Z,983.64
2023-11-27T23:33:34.685Z,983.72
2023-11-27T23:35:31.038Z,983.68
2023-11-27T23:36:30.904Z,983.73
2023-11-27T23:38:27.306Z,983.75
2023-11-27T23:39:27.166Z,983.79
2023-11-27T23:41:23.544Z,983.84
2023-11-27T23:42:23.255Z,983.84
2023-11-27T23:44:19.768Z,983.91
2023-11-27T23:45:19.320Z,983.94
2023-11-27T23:47:15.778Z,983.99
2023-11-27T23:48:15.686Z,984.04
2023-11-27T23:50:12.548Z,984.05
2023-11-27T23:51:11.852Z,984.07
2023-11-27T23:53:08.396Z,984.11
2023-11-27T23:54:06.991Z,984.14
2023-11-27T23:56:03.509Z,984.17
2023-11-27T23:57:03.246Z,984.14
2023-11-27T23:58:58.693Z,984.18
2023-11-27T23:59:58.278Z,984.18
